createdAt,value
2022-08-09T00:14:02.350Z,54.66
2022-08-09T00:29:45.072Z,55.18
2022-08-09T00:45:27.736Z,55.31
2022-08-09T01:01:10.425Z,55.46
2022-08-09T01:16:52.663Z,55.44
2022-08-09T01:32:34.781Z,55.41
2022-08-09T01:48:17.180Z,56.08
2022-08-09T02:03:59.682Z,56.27
2022-08-09T02:35:24.960Z,57.91
2022-08-09T02:36:11.429Z,57.75
2022-08-09T02:51:54.311Z,58.54
2022-08-09T03:07:36.472Z,58.46
2022-08-09T03:23:19.329Z,58.62
2022-08-09T03:39:01.685Z,58.7
2022-08-09T03:54:43.905Z,58.55
2022-08-09T04:10:26.197Z,58.89
2022-08-09T04:26:08.815Z,58.92
2022-08-09T04:41:51.189Z,58.76
2022-08-09T04:57:33.779Z,58.6
2022-08-09T05:13:16.455Z,58.06
2022-08-09T05:28:58.958Z,57.59
2022-08-09T05:44:41.078Z,56.23
2022-08-09T06:00:23.442Z,54.64
2022-08-09T06:16:05.711Z,54.1
2022-08-09T06:31:47.809Z,52.64
2022-08-09T06:47:30.539Z,51.6
2022-08-09T07:03:12.621Z,48.84
2022-08-09T07:18:54.990Z,47.59
2022-08-09T07:34:37.699Z,46.18
2022-08-09T07:50:19.745Z,46.14
2022-08-09T08:06:02.242Z,43.41
2022-08-09T08:21:44.677Z,42.12
2022-08-09T08:37:27.031Z,39.16
2022-08-09T08:53:09.008Z,31.24
2022-08-09T09:08:51.417Z,28.32
2022-08-09T09:24:33.976Z,25.63
2022-08-09T09:40:15.962Z,25.65
2022-08-09T09:55:57.988Z,22.9
2022-08-09T10:11:40.384Z,20.73
2022-08-09T10:27:22.985Z,19.25
2022-08-09T10:43:05.451Z,18
2022-08-09T10:58:48.220Z,17.19
2022-08-09T11:14:30.710Z,16.72
2022-08-09T11:30:13.130Z,16.28
2022-08-09T11:45:55.828Z,15.9
2022-08-09T12:01:38.149Z,19.33
2022-08-09T12:17:20.546Z,16.26
2022-08-09T12:33:03.086Z,17.56
2022-08-09T12:48:45.079Z,18.47
2022-08-09T13:04:27.687Z,20.16
2022-08-09T13:20:10.295Z,20.08
2022-08-09T13:35:52.686Z,15.92
2022-08-09T13:51:35.480Z,15.14
2022-08-09T14:07:17.421Z,16.98
2022-08-09T14:23:00.003Z,18.78
2022-08-09T14:38:42.598Z,21.08
2022-08-09T14:54:27.469Z,21.96
2022-08-09T15:10:07.684Z,21.65
2022-08-09T15:25:49.688Z,21.32
2022-08-09T15:41:32.269Z,23.17
2022-08-09T15:57:14.910Z,25.4
2022-08-09T16:12:56.970Z,26.04
2022-08-09T16:28:39.266Z,25.63
2022-08-09T16:44:27.741Z,25.59
2022-08-09T17:00:04.695Z,24.14
2022-08-09T17:15:47.202Z,24.49
2022-08-09T17:31:29.331Z,25.81
2022-08-09T17:47:11.737Z,29.13
2022-08-09T18:02:53.811Z,31.67
2022-08-09T18:18:35.914Z,33.74
2022-08-09T18:34:18.730Z,36.35
2022-08-09T18:50:01.245Z,38.72
2022-08-09T19:05:43.867Z,40.47
2022-08-09T19:21:26.585Z,41.55
2022-08-09T19:37:09.109Z,42.99
2022-08-09T19:52:51.457Z,44.17
2022-08-09T20:08:34.161Z,46.45
2022-08-09T20:24:17.077Z,47.32
2022-08-09T20:40:12.681Z,49.33
2022-08-09T20:55:41.716Z,50.14
2022-08-09T21:27:10.069Z,52.75
2022-08-09T21:42:49.321Z,54.07
2022-08-09T21:58:31.750Z,55.34
2022-08-09T22:14:13.828Z,56.61
2022-08-09T22:29:56.169Z,57.99
2022-08-09T22:48:04.407Z,59.57
2022-08-09T23:01:21.610Z,60.65
2022-08-09T23:17:04.475Z,61.58
2022-08-09T23:32:47.207Z,63.36
2022-08-09T23:48:29.372Z,64.22
